Time;durP1;ratioP1;P1;durP2;ratioP2;P2;SDS_P1;SDS_P2;PMS_P1;PMS_P2;Temp;Humidity;BMP_temperature;BMP_pressure;BME280_temperature;BME280_humidity;BME280_pressure;Samples;Min_cycle;Max_cycle;Signal;HPM_P1;HPM_P2
2022/12/12 00:00:22;;;;;;;0.50;0.50;;;-3.10;99.90;;;;;;5030159;28;20695;-83
2022/12/12 00:02:48;;;;;;;0.60;0.60;;;-3.00;99.90;;;;;;5031071;28;20191;-83
2022/12/12 00:05:15;;;;;;;0.70;0.70;;;-3.00;99.90;;;;;;5031665;28;20191;-83
2022/12/12 00:07:41;;;;;;;0.60;0.60;;;-3.10;99.90;;;;;;5025632;28;20202;-83
2022/12/12 00:10:07;;;;;;;0.53;0.53;;;-3.00;99.90;;;;;;5031439;28;20446;-83
2022/12/12 00:12:33;;;;;;;0.60;0.60;;;-3.00;99.90;;;;;;5031089;28;20242;-83
2022/12/12 00:14:58;;;;;;;0.70;0.70;;;-2.90;99.90;;;;;;5031208;28;21041;-83
2022/12/12 00:17:24;;;;;;;0.50;0.50;;;-2.90;99.90;;;;;;5029296;28;20203;-83
2022/12/12 00:19:49;;;;;;;0.60;0.60;;;-2.80;99.90;;;;;;5026000;28;20187;-83
2022/12/12 00:22:15;;;;;;;0.53;0.53;;;-2.80;99.90;;;;;;5029745;28;20274;-83
2022/12/12 00:24:41;;;;;;;0.60;0.60;;;-2.70;99.90;;;;;;5019929;28;20191;-83
2022/12/12 00:27:06;;;;;;;0.50;0.50;;;-2.70;99.90;;;;;;5025623;28;20194;-83
2022/12/12 00:29:32;;;;;;;0.60;0.60;;;-2.70;99.90;;;;;;5031599;28;20187;-83
2022/12/12 00:31:58;;;;;;;0.60;0.60;;;-2.70;99.90;;;;;;5029510;28;20196;-83
2022/12/12 00:34:23;;;;;;;0.50;0.50;;;-2.60;99.90;;;;;;5031237;28;20573;-83
2022/12/12 00:36:50;;;;;;;0.40;0.40;;;-2.60;99.90;;;;;;5028822;28;20226;-83
2022/12/12 00:39:16;;;;;;;0.50;0.50;;;-2.50;99.90;;;;;;5029617;28;20636;-83
2022/12/12 00:41:42;;;;;;;0.60;0.60;;;-2.50;99.90;;;;;;5030119;28;20472;-83
2022/12/12 00:44:07;;;;;;;0.50;0.50;;;-2.60;99.90;;;;;;5032318;28;21352;-83
2022/12/12 00:46:33;;;;;;;0.50;0.50;;;-2.60;99.90;;;;;;5030526;28;20199;-83
2022/12/12 00:48:58;;;;;;;0.50;0.50;;;-2.60;99.90;;;;;;5031475;28;20210;-83
2022/12/12 00:51:26;;;;;;;0.60;0.60;;;-2.70;99.90;;;;;;5031016;28;20246;-83
2022/12/12 00:53:52;;;;;;;0.50;0.50;;;-2.70;99.90;;;;;;5029637;28;20223;-83
2022/12/12 00:56:27;;;;;;;0.60;0.60;;;-2.80;99.90;;;;;;5028779;28;20559;-83
2022/12/12 00:58:53;;;;;;;0.60;0.60;;;-2.80;99.90;;;;;;5026477;28;20433;-83
2022/12/12 01:01:24;;;;;;;0.53;0.53;;;-2.70;99.90;;;;;;5024251;28;20999;-83
2022/12/12 01:03:51;;;;;;;0.60;0.60;;;-2.80;99.90;;;;;;5030894;28;20190;-83
2022/12/12 01:06:17;;;;;;;0.50;0.50;;;-2.90;99.90;;;;;;5029543;28;20446;-83
2022/12/12 01:08:42;;;;;;;0.60;0.60;;;-3.00;99.90;;;;;;5030426;28;20445;-82
2022/12/12 01:11:10;;;;;;;0.50;0.50;;;-3.10;99.90;;;;;;5025097;28;20187;-83
2022/12/12 01:13:36;;;;;;;0.50;0.50;;;-3.00;99.90;;;;;;5029088;28;20757;-83
2022/12/12 01:16:03;;;;;;;0.60;0.60;;;-3.00;99.90;;;;;;5027078;28;20989;-83
2022/12/12 01:18:28;;;;;;;0.53;0.53;;;-3.00;99.90;;;;;;5029459;28;20507;-82
2022/12/12 01:20:54;;;;;;;0.70;0.70;;;-3.00;99.90;;;;;;5028551;28;20533;-83
2022/12/12 01:23:19;;;;;;;0.50;0.50;;;-3.00;99.90;;;;;;5027814;28;20196;-83
2022/12/12 01:25:45;;;;;;;0.50;0.50;;;-2.90;99.90;;;;;;5025654;28;20192;-83
2022/12/12 01:28:11;;;;;;;0.40;0.40;;;-2.90;99.90;;;;;;5027881;28;20199;-83
2022/12/12 01:30:36;;;;;;;0.50;0.50;;;-2.90;99.90;;;;;;5028353;28;20815;-83
2022/12/12 01:33:02;;;;;;;0.50;0.50;;;-2.90;99.90;;;;;;5028893;28;20258;-82
2022/12/12 01:35:29;;;;;;;0.50;0.50;;;-2.90;99.90;;;;;;5029642;28;20365;-83
2022/12/12 01:37:54;;;;;;;0.60;0.60;;;-2.90;99.90;;;;;;5031317;28;20450;-84
2022/12/12 01:40:23;;;;;;;0.50;0.50;;;-2.80;99.90;;;;;;5028495;28;20491;-83
2022/12/12 01:42:49;;;;;;;0.70;0.70;;;-2.80;99.90;;;;;;5029126;28;20199;-83
2022/12/12 01:45:52;;;;;;;0.70;0.70;;;-2.90;99.90;;;;;;5028211;28;21032;-83
2022/12/12 01:48:21;;;;;;;0.60;0.60;;;-3.00;99.90;;;;;;5017054;28;20450;-83
2022/12/12 01:50:47;;;;;;;0.47;0.47;;;-2.90;99.90;;;;;;5027531;28;20437;-83
2022/12/12 01:53:15;;;;;;;0.53;0.53;;;-2.80;99.90;;;;;;5028154;28;20445;-83
2022/12/12 01:55:41;;;;;;;0.57;0.57;;;-2.80;99.90;;;;;;5028901;28;20486;-83
2022/12/12 01:58:07;;;;;;;0.67;0.67;;;-2.90;99.90;;;;;;5031096;28;20770;-83
2022/12/12 02:00:32;;;;;;;0.43;0.43;;;-3.00;99.90;;;;;;5027172;28;20469;-83
2022/12/12 02:02:58;;;;;;;0.50;0.50;;;-3.10;99.90;;;;;;5028515;28;20255;-83
2022/12/12 02:05:30;;;;;;;0.60;0.60;;;-3.10;99.90;;;;;;5024284;28;20685;-83
2022/12/12 02:07:58;;;;;;;0.50;0.50;;;-3.10;99.90;;;;;;5028488;28;20236;-83
2022/12/12 02:10:23;;;;;;;0.40;0.40;;;-3.00;99.90;;;;;;5026219;28;20469;-83
2022/12/12 02:12:49;;;;;;;0.60;0.60;;;-3.10;99.90;;;;;;5029600;28;20868;-83
2022/12/12 02:15:15;;;;;;;0.50;0.50;;;-3.20;99.90;;;;;;5014951;28;20216;-83
2022/12/12 02:18:28;;;;;;;0.50;0.50;;;-3.20;99.90;;;;;;5029624;28;20180;-83
2022/12/12 02:21:32;;;;;;;0.70;0.70;;;-3.20;99.90;;;;;;5020874;28;20450;-83
2022/12/12 02:24:21;;;;;;;0.57;0.57;;;-3.20;99.90;;;;;;5018061;28;20445;-83
2022/12/12 02:27:33;;;;;;;0.47;0.47;;;-3.20;99.90;;;;;;5027566;28;20451;-82
2022/12/12 02:30:17;;;;;;;0.40;0.40;;;-3.20;99.90;;;;;;5010867;28;20436;-83
2022/12/12 02:32:59;;;;;;;0.67;0.67;;;-3.20;99.90;;;;;;5025903;28;20490;-83
2022/12/12 02:35:38;;;;;;;0.60;0.60;;;-3.20;99.90;;;;;;5026273;28;21830;-82
2022/12/12 02:38:16;;;;;;;0.67;0.67;;;-3.30;99.90;;;;;;5030400;28;20430;-82
2022/12/12 02:40:55;;;;;;;0.60;0.60;;;-3.20;99.90;;;;;;5027044;28;20446;-83
2022/12/12 02:43:42;;;;;;;0.60;0.60;;;-3.20;99.90;;;;;;5028484;28;20507;-83
2022/12/12 02:46:44;;;;;;;0.70;0.70;;;-3.30;99.90;;;;;;5027814;28;20469;-83
2022/12/12 02:49:18;;;;;;;0.50;0.50;;;-3.20;99.90;;;;;;5027768;28;20449;-82
2022/12/12 02:51:46;;;;;;;0.60;0.60;;;-3.30;99.90;;;;;;5027333;28;20450;-83
2022/12/12 02:54:14;;;;;;;0.53;0.53;;;-3.30;99.90;;;;;;5023054;28;20489;-83
2022/12/12 02:56:58;;;;;;;0.67;0.67;;;-3.40;99.90;;;;;;5023747;28;20521;-83
2022/12/12 02:59:34;;;;;;;0.57;0.57;;;-3.30;99.90;;;;;;5027525;28;20478;-83
2022/12/12 03:02:22;;;;;;;0.60;0.60;;;-3.40;99.90;;;;;;5026926;28;20434;-84
2022/12/12 03:08:22;;;;;;;0.57;0.57;;;-3.40;99.90;;;;;;5023388;28;20460;-83
2022/12/12 03:11:09;;;;;;;0.70;0.70;;;-3.40;99.90;;;;;;5019473;28;21323;-83
2022/12/12 03:13:55;;;;;;;0.70;0.70;;;-3.40;99.90;;;;;;5022818;28;20453;-84
2022/12/12 03:16:31;;;;;;;0.70;0.70;;;-3.30;99.90;;;;;;5025472;28;21051;-84
2022/12/12 03:19:09;;;;;;;0.53;0.53;;;-3.30;99.90;;;;;;5027215;28;20442;-83
2022/12/12 03:21:47;;;;;;;0.50;0.50;;;-3.30;99.90;;;;;;5025124;28;20462;-83
2022/12/12 03:24:28;;;;;;;0.50;0.50;;;-3.20;99.90;;;;;;5015327;28;20821;-82
2022/12/12 03:27:06;;;;;;;0.60;0.60;;;-3.30;99.90;;;;;;5025628;28;20937;-83
2022/12/12 03:29:39;;;;;;;0.47;0.47;;;-3.20;99.90;;;;;;5027075;28;21211;-83
2022/12/12 03:32:13;;;;;;;0.53;0.53;;;-3.20;99.90;;;;;;5023024;28;20446;-83
2022/12/12 03:34:45;;;;;;;0.40;0.40;;;-3.20;99.90;;;;;;5022811;28;20442;-82
2022/12/12 03:37:24;;;;;;;0.70;0.70;;;-3.10;99.90;;;;;;5025003;28;20512;-82
2022/12/12 03:39:59;;;;;;;0.60;0.60;;;-3.00;99.90;;;;;;5025703;28;20465;-83
2022/12/12 03:42:46;;;;;;;0.60;0.60;;;-2.90;99.90;;;;;;5025305;28;20455;-83
2022/12/12 03:45:33;;;;;;;0.60;0.60;;;-2.90;99.90;;;;;;5025880;28;20503;-83
2022/12/12 03:48:27;;;;;;;0.70;0.70;;;-2.90;99.90;;;;;;5024034;28;20449;-83
2022/12/12 03:51:06;;;;;;;0.40;0.40;;;-2.80;99.90;;;;;;5022080;28;20583;-83
2022/12/12 03:53:47;;;;;;;0.60;0.60;;;-2.80;99.90;;;;;;5024653;28;21090;-83
2022/12/12 03:56:40;;;;;;;0.60;0.60;;;-2.80;99.90;;;;;;5025859;28;20842;-83
2022/12/12 03:59:13;;;;;;;0.50;0.50;;;-2.80;99.90;;;;;;5025032;28;20946;-83
2022/12/12 04:01:47;;;;;;;0.60;0.60;;;-2.80;99.90;;;;;;5026650;28;20472;-83
2022/12/12 04:04:30;;;;;;;0.53;0.53;;;-2.70;99.90;;;;;;5021192;28;20442;-83
2022/12/12 04:07:18;;;;;;;0.43;0.43;;;-2.60;99.90;;;;;;5018594;28;20960;-82
2022/12/12 04:12:57;;;;;;;0.50;0.50;;;-2.40;99.90;;;;;;5029404;28;20445;-83
2022/12/12 04:15:23;;;;;;;0.60;0.60;;;-2.50;99.90;;;;;;5024173;28;21059;-82
2022/12/12 04:18:14;;;;;;;0.70;0.70;;;-2.50;99.90;;;;;;5030133;28;20603;-83
2022/12/12 04:23:58;;;;;;;0.50;0.50;;;-2.50;99.90;;;;;;5027782;28;20601;-83
2022/12/12 04:26:40;;;;;;;0.60;0.60;;;-2.40;99.90;;;;;;5029014;28;20453;-84
2022/12/12 04:29:18;;;;;;;0.47;0.47;;;-2.40;99.90;;;;;;5028033;28;20453;-83
2022/12/12 04:32:08;;;;;;;0.60;0.60;;;-2.30;99.90;;;;;;5018027;28;21164;-83
2022/12/12 04:34:49;;;;;;;0.50;0.50;;;-2.30;99.90;;;;;;5028564;28;20446;-83
2022/12/12 04:37:20;;;;;;;0.50;0.50;;;-2.40;99.90;;;;;;5027294;28;20528;-83
2022/12/12 04:39:49;;;;;;;0.60;0.60;;;-2.50;99.90;;;;;;5028324;28;20461;-83
2022/12/12 04:42:20;;;;;;;0.60;0.60;;;-2.60;99.90;;;;;;5019685;28;20438;-83
2022/12/12 04:44:47;;;;;;;0.60;0.60;;;-2.60;99.90;;;;;;5030881;28;20890;-83
2022/12/12 04:47:14;;;;;;;0.50;0.50;;;-2.60;99.90;;;;;;5030434;28;20440;-83
2022/12/12 04:49:44;;;;;;;0.50;0.50;;;-2.70;99.90;;;;;;5025397;28;20504;-82
2022/12/12 04:52:12;;;;;;;0.40;0.40;;;-2.70;99.90;;;;;;5021077;28;20443;-83
2022/12/12 04:54:56;;;;;;;0.40;0.40;;;-2.80;99.90;;;;;;5020422;28;20812;-83
2022/12/12 04:57:29;;;;;;;0.40;0.40;;;-2.80;99.90;;;;;;5029602;28;20478;-83
2022/12/12 04:59:55;;;;;;;0.40;0.40;;;-3.00;99.90;;;;;;5026040;28;20473;-83
2022/12/12 05:02:44;;;;;;;0.40;0.40;;;-3.10;99.90;;;;;;5029336;28;20450;-83
2022/12/12 05:05:17;;;;;;;0.60;0.60;;;-3.10;99.90;;;;;;5026372;28;20519;-83
2022/12/12 05:07:49;;;;;;;0.70;0.70;;;-3.20;99.90;;;;;;5025200;28;20438;-83
2022/12/12 05:10:17;;;;;;;0.60;0.60;;;-3.20;99.90;;;;;;5026945;28;20452;-82
2022/12/12 05:12:52;;;;;;;0.50;0.50;;;-3.20;99.90;;;;;;5029923;28;20602;-82
2022/12/12 05:15:19;;;;;;;0.43;0.43;;;-3.30;99.90;;;;;;5027499;28;21100;-82
2022/12/12 05:17:57;;;;;;;0.40;0.40;;;-3.20;99.90;;;;;;5032478;28;20953;-83
2022/12/12 05:20:22;;;;;;;0.60;0.60;;;-3.20;99.90;;;;;;5025761;28;20445;-82
2022/12/12 05:22:48;;;;;;;0.50;0.50;;;-3.00;99.90;;;;;;5031103;28;20473;-83
2022/12/12 05:25:13;;;;;;;0.43;0.43;;;-3.00;99.90;;;;;;5027655;28;20194;-83
2022/12/12 05:27:39;;;;;;;0.50;0.50;;;-3.00;99.90;;;;;;5029622;28;20191;-83
2022/12/12 05:30:05;;;;;;;0.60;0.60;;;-2.90;99.90;;;;;;5014831;28;20192;-82
2022/12/12 05:32:30;;;;;;;0.60;0.60;;;-2.80;99.90;;;;;;5027550;28;20191;-83
2022/12/12 05:34:56;;;;;;;0.70;0.70;;;-2.90;99.90;;;;;;5028516;28;20438;-83
2022/12/12 05:37:22;;;;;;;0.70;0.70;;;-3.00;99.90;;;;;;5026959;28;20229;-83
2022/12/12 05:39:47;;;;;;;0.60;0.60;;;-3.10;99.90;;;;;;5029626;28;20213;-83
2022/12/12 05:42:13;;;;;;;0.63;0.63;;;-3.10;99.90;;;;;;5027669;28;20195;-82
2022/12/12 05:44:38;;;;;;;0.60;0.60;;;-3.00;99.90;;;;;;5028879;28;20211;-82
2022/12/12 05:47:04;;;;;;;0.60;0.60;;;-3.00;99.90;;;;;;5028286;28;20739;-82
2022/12/12 05:49:29;;;;;;;0.60;0.60;;;-3.00;99.90;;;;;;5027276;28;20561;-83
2022/12/12 05:51:55;;;;;;;0.60;0.60;;;-3.10;99.90;;;;;;5028773;28;20555;-83
2022/12/12 05:54:20;;;;;;;0.57;0.57;;;-3.20;99.90;;;;;;5023376;28;20243;-83
2022/12/12 05:56:46;;;;;;;0.43;0.43;;;-3.10;99.90;;;;;;5020774;28;20255;-83
2022/12/12 05:59:11;;;;;;;0.60;0.60;;;-3.10;99.90;;;;;;5017453;28;20183;-83
2022/12/12 06:01:36;;;;;;;0.40;0.40;;;-3.10;99.90;;;;;;5025269;28;20266;-82
2022/12/12 06:04:02;;;;;;;0.53;0.53;;;-3.20;99.90;;;;;;5025197;28;20282;-83
2022/12/12 06:06:28;;;;;;;0.50;0.50;;;-3.30;99.90;;;;;;5026081;28;20799;-83
2022/12/12 06:08:53;;;;;;;0.60;0.60;;;-3.30;99.90;;;;;;5026875;28;20446;-82
2022/12/12 06:11:19;;;;;;;0.50;0.50;;;-3.40;99.90;;;;;;5025684;28;20200;-83
2022/12/12 06:13:45;;;;;;;0.50;0.50;;;-3.50;99.90;;;;;;5026144;28;20274;-83
2022/12/12 06:16:15;;;;;;;0.50;0.50;;;-3.60;99.90;;;;;;5026624;28;20581;-82
2022/12/12 06:18:40;;;;;;;0.50;0.50;;;-3.60;99.90;;;;;;5027745;28;20192;-83
2022/12/12 06:21:11;;;;;;;0.50;0.50;;;-3.60;99.90;;;;;;5025888;28;20450;-82
2022/12/12 06:23:39;;;;;;;0.70;0.70;;;-3.80;99.90;;;;;;5027828;28;20546;-83
2022/12/12 06:26:06;;;;;;;0.40;0.40;;;-3.60;99.90;;;;;;5026619;28;21086;-82
2022/12/12 06:28:32;;;;;;;0.70;0.70;;;-3.80;99.90;;;;;;5025458;28;20438;-83
2022/12/12 06:30:57;;;;;;;0.70;0.70;;;-3.80;99.90;;;;;;5022703;28;20457;-82
2022/12/12 06:33:24;;;;;;;0.40;0.40;;;-3.80;99.90;;;;;;5023756;28;20190;-82
2022/12/12 06:36:04;;;;;;;0.50;0.50;;;-3.80;99.90;;;;;;5024523;28;20211;-83
2022/12/12 06:38:31;;;;;;;0.60;0.60;;;-3.90;99.90;;;;;;5023324;28;20536;-84
2022/12/12 06:40:57;;;;;;;0.60;0.60;;;-3.90;99.90;;;;;;5021295;28;20556;-82
2022/12/12 06:43:23;;;;;;;0.60;0.60;;;-3.90;99.90;;;;;;5027333;28;20453;-83
2022/12/12 06:45:49;;;;;;;0.50;0.50;;;-3.80;99.90;;;;;;5025079;28;20532;-83
2022/12/12 06:48:15;;;;;;;0.60;0.60;;;-3.90;99.90;;;;;;5026698;28;20841;-83
2022/12/12 06:50:42;;;;;;;0.53;0.53;;;-3.90;99.90;;;;;;5011562;28;20547;-82
2022/12/12 06:53:08;;;;;;;0.50;0.50;;;-4.10;99.90;;;;;;5022876;28;20210;-82
2022/12/12 06:55:33;;;;;;;0.63;0.63;;;-4.30;99.90;;;;;;5021853;28;20998;-80
2022/12/12 06:57:58;;;;;;;0.50;0.50;;;-4.30;99.90;;;;;;5020473;28;20447;-81
2022/12/12 07:00:24;;;;;;;0.60;0.60;;;-4.20;99.90;;;;;;5024101;28;20670;-80
2022/12/12 07:02:53;;;;;;;0.80;0.80;;;-4.30;99.90;;;;;;5022450;28;20192;-82
2022/12/12 07:05:18;;;;;;;0.60;0.60;;;-4.40;99.90;;;;;;5024869;28;20191;-81
2022/12/12 07:07:44;;;;;;;0.80;0.80;;;-4.50;99.90;;;;;;5025037;28;20451;-81
2022/12/12 07:10:10;;;;;;;0.50;0.50;;;-4.50;99.90;;;;;;5017152;28;20195;-82
2022/12/12 07:12:35;;;;;;;0.60;0.60;;;-4.60;99.90;;;;;;5028760;28;20222;-82
2022/12/12 07:15:01;;;;;;;0.80;0.80;;;-4.60;99.90;;;;;;5023464;28;20192;-81
2022/12/12 07:17:26;;;;;;;0.80;0.80;;;-4.60;99.90;;;;;;5026759;28;20219;-81
2022/12/12 07:19:52;;;;;;;0.70;0.70;;;-4.60;99.90;;;;;;5024230;28;20325;-81
2022/12/12 07:22:19;;;;;;;0.80;0.80;;;-4.60;99.90;;;;;;5022184;28;20203;-81
2022/12/12 07:24:45;;;;;;;0.50;0.50;;;-4.60;99.90;;;;;;5026556;28;20767;-81
2022/12/12 07:27:10;;;;;;;0.60;0.60;;;-4.60;99.90;;;;;;5019456;28;20454;-81
2022/12/12 07:29:35;;;;;;;0.60;0.60;;;-4.60;99.90;;;;;;5026222;28;20194;-81
2022/12/12 07:32:01;;;;;;;0.60;0.60;;;-4.70;99.90;;;;;;5024805;28;20183;-82
2022/12/12 07:34:30;;;;;;;0.70;0.70;;;-4.70;99.90;;;;;;5026207;28;20660;-82
2022/12/12 07:36:55;;;;;;;0.70;0.70;;;-4.70;99.90;;;;;;5025658;28;20219;-81
2022/12/12 07:39:21;;;;;;;0.70;0.70;;;-4.60;99.90;;;;;;5022691;28;21024;-81
2022/12/12 07:41:47;;;;;;;0.50;0.50;;;-4.60;99.90;;;;;;5020333;28;20562;-81
2022/12/12 07:44:12;;;;;;;0.50;0.50;;;-4.70;99.90;;;;;;5019916;28;20716;-79
2022/12/12 07:46:38;;;;;;;0.60;0.60;;;-4.70;99.90;;;;;;5022742;28;20803;-79
2022/12/12 07:49:03;;;;;;;0.63;0.63;;;-4.70;99.90;;;;;;5029315;28;20187;-79
2022/12/12 07:51:29;;;;;;;0.80;0.80;;;-4.80;99.90;;;;;;5029046;28;20195;-79
2022/12/12 07:53:55;;;;;;;0.70;0.70;;;-4.70;99.90;;;;;;5029311;28;20314;-78
2022/12/12 07:56:20;;;;;;;0.63;0.63;;;-4.70;99.90;;;;;;5030494;28;21211;-78
2022/12/12 07:58:47;;;;;;;0.53;0.53;;;-4.70;99.90;;;;;;5028476;28;20183;-79
2022/12/12 08:01:18;;;;;;;0.70;0.70;;;-4.70;99.90;;;;;;5023718;28;20211;-79
2022/12/12 08:03:45;;;;;;;0.77;0.77;;;-4.70;99.90;;;;;;5026964;28;20962;-79
2022/12/12 08:06:12;;;;;;;0.73;0.73;;;-4.80;99.90;;;;;;5026709;28;20499;-79
2022/12/12 08:08:38;;;;;;;0.60;0.60;;;-4.70;99.90;;;;;;5032295;28;20450;-79
2022/12/12 08:11:08;;;;;;;0.70;0.70;;;-4.60;99.90;;;;;;5030687;28;20446;-79
2022/12/12 08:13:36;;;;;;;0.60;0.60;;;-4.60;99.90;;;;;;5021701;28;20450;-79
2022/12/12 08:16:04;;;;;;;0.70;0.70;;;-4.70;99.90;;;;;;5028563;28;21003;-79
2022/12/12 08:18:29;;;;;;;0.53;0.53;;;-4.50;99.90;;;;;;5029870;28;21133;-78
2022/12/12 08:20:55;;;;;;;0.60;0.60;;;-4.50;99.90;;;;;;5026060;28;20500;-79
2022/12/12 08:23:20;;;;;;;0.50;0.50;;;-4.40;99.90;;;;;;5033650;28;20537;-79
2022/12/12 08:25:46;;;;;;;0.80;0.80;;;-4.30;99.90;;;;;;5029756;28;20199;-79
2022/12/12 08:28:11;;;;;;;0.50;0.50;;;-4.40;99.90;;;;;;5030236;28;20184;-79
2022/12/12 08:30:37;;;;;;;0.63;0.63;;;-4.30;99.90;;;;;;5030048;28;20194;-78
2022/12/12 08:33:03;;;;;;;0.57;0.57;;;-4.30;99.90;;;;;;5033000;28;20559;-79
2022/12/12 08:35:29;;;;;;;0.70;0.70;;;-4.20;99.90;;;;;;5028474;28;20188;-79
2022/12/12 08:37:55;;;;;;;0.57;0.57;;;-4.00;99.90;;;;;;5028365;28;20485;-79
2022/12/12 08:40:21;;;;;;;0.67;0.67;;;-3.80;99.90;;;;;;5031009;28;20553;-79
2022/12/12 08:42:47;;;;;;;0.80;0.80;;;-3.70;99.90;;;;;;5028384;28;21183;-79
2022/12/12 08:45:12;;;;;;;0.60;0.60;;;-3.60;99.90;;;;;;5026059;28;20188;-79
2022/12/12 08:47:38;;;;;;;0.70;0.70;;;-3.50;99.90;;;;;;5021375;28;20194;-79
2022/12/12 08:50:04;;;;;;;0.70;0.70;;;-3.40;99.90;;;;;;5022007;28;20263;-79
2022/12/12 08:52:30;;;;;;;0.77;0.77;;;-3.40;99.90;;;;;;5024300;28;20241;-79
2022/12/12 08:54:55;;;;;;;0.57;0.57;;;-3.10;99.90;;;;;;5018784;28;20462;-78
2022/12/12 08:57:21;;;;;;;0.43;0.43;;;-3.10;99.90;;;;;;5025884;28;20219;-79
2022/12/12 08:59:47;;;;;;;0.57;0.57;;;-3.10;99.90;;;;;;5029158;28;20184;-79
2022/12/12 09:02:12;;;;;;;0.67;0.67;;;-3.10;99.90;;;;;;5027135;28;20656;-79
2022/12/12 09:04:38;;;;;;;0.50;0.50;;;-3.00;99.90;;;;;;5023583;28;20481;-79
2022/12/12 09:07:05;;;;;;;0.57;0.57;;;-3.00;99.90;;;;;;5022138;28;20279;-79
2022/12/12 09:09:31;;;;;;;0.60;0.60;;;-2.80;99.90;;;;;;5024189;28;20277;-79
2022/12/12 09:11:56;;;;;;;0.70;0.70;;;-2.70;99.90;;;;;;5025417;28;20481;-79
2022/12/12 09:14:22;;;;;;;0.60;0.60;;;-2.70;99.90;;;;;;5022198;28;21071;-81
2022/12/12 09:16:47;;;;;;;0.50;0.50;;;-2.70;99.90;;;;;;5022179;28;20227;-79
2022/12/12 09:19:13;;;;;;;0.60;0.60;;;-2.60;99.90;;;;;;5017058;28;20199;-79
2022/12/12 09:21:38;;;;;;;0.60;0.60;;;-2.40;99.90;;;;;;5024925;28;20192;-79
2022/12/12 09:24:04;;;;;;;0.50;0.50;;;-2.30;99.90;;;;;;5022070;28;20188;-79
2022/12/12 09:26:30;;;;;;;0.60;0.60;;;-2.10;99.90;;;;;;5041612;28;20672;-79
2022/12/12 09:28:55;;;;;;;0.50;0.50;;;-1.90;99.90;;;;;;5026593;28;20237;-78
2022/12/12 09:31:21;;;;;;;0.33;0.33;;;-1.80;99.90;;;;;;5025064;28;20655;-79
2022/12/12 09:33:46;;;;;;;0.63;0.63;;;-1.80;99.90;;;;;;5029480;28;20269;-78
2022/12/12 09:36:20;;;;;;;0.43;0.43;;;-1.70;99.90;;;;;;5029086;28;20207;-78
2022/12/12 09:38:45;;;;;;;0.40;0.40;;;-1.60;99.90;;;;;;5019153;28;20242;-78
2022/12/12 09:41:22;;;;;;;0.60;0.60;;;-1.30;99.90;;;;;;5022757;28;20953;-78
2022/12/12 09:44:07;;;;;;;0.40;0.40;;;-1.00;99.90;;;;;;5030419;28;20270;-78
2022/12/12 09:46:47;;;;;;;0.40;0.40;;;-0.90;99.90;;;;;;5026732;28;20881;-78
2022/12/12 09:49:26;;;;;;;0.50;0.50;;;-0.80;99.90;;;;;;5025496;28;20499;-78
2022/12/12 09:52:09;;;;;;;0.37;0.37;;;-0.20;99.90;;;;;;5024157;28;20482;-78
2022/12/12 09:54:34;;;;;;;0.40;0.40;;;0.40;99.90;;;;;;5019525;28;20482;-78
2022/12/12 09:57:27;;;;;;;0.40;0.40;;;0.80;99.90;;;;;;5023150;28;20470;-78
2022/12/12 10:00:09;;;;;;;0.40;0.40;;;0.00;99.90;;;;;;5026676;28;20199;-78
2022/12/12 10:03:04;;;;;;;0.43;0.43;;;-0.40;99.90;;;;;;5027574;28;20465;-78
2022/12/12 10:05:40;;;;;;;0.50;0.50;;;-0.70;99.90;;;;;;5018745;28;20514;-78
2022/12/12 10:08:30;;;;;;;0.37;0.37;;;-0.60;99.90;;;;;;5003015;28;20441;-77
2022/12/12 10:11:03;;;;;;;0.50;0.50;;;-0.50;99.90;;;;;;5008200;28;20450;-77
2022/12/12 10:13:32;;;;;;;0.33;0.33;;;-0.40;99.90;;;;;;5027163;28;20434;-77
2022/12/12 10:16:08;;;;;;;0.40;0.40;;;-0.30;99.90;;;;;;5026531;28;20902;-78
2022/12/12 10:18:42;;;;;;;0.40;0.40;;;-0.20;99.90;;;;;;5027757;28;20465;-78
2022/12/12 10:21:21;;;;;;;0.40;0.40;;;0.30;99.90;;;;;;5022992;28;20443;-77
2022/12/12 10:23:54;;;;;;;0.30;0.30;;;0.50;99.90;;;;;;5006545;28;20449;-78
2022/12/12 10:26:28;;;;;;;0.40;0.40;;;0.80;99.90;;;;;;5003869;28;20467;-77
2022/12/12 10:29:18;;;;;;;0.30;0.30;;;1.00;99.90;;;;;;5008780;28;20458;-77
2022/12/12 10:32:06;;;;;;;0.30;0.30;;;1.90;99.90;;;;;;5006256;28;20540;-79
2022/12/12 10:34:56;;;;;;;0.37;0.37;;;1.90;99.90;;;;;;5007617;28;20446;-79
2022/12/12 10:37:45;;;;;;;0.30;0.30;;;2.60;99.90;;;;;;5019715;28;20565;-77
2022/12/12 10:40:44;;;;;;;0.30;0.30;;;3.10;99.90;;;;;;5005047;28;20450;-77
2022/12/12 10:43:17;;;;;;;0.33;0.33;;;3.40;99.90;;;;;;5028584;28;20854;-78
2022/12/12 10:46:27;;;;;;;0.30;0.30;;;2.70;99.90;;;;;;5029202;28;20442;-78
2022/12/12 10:48:53;;;;;;;0.30;0.30;;;1.90;99.90;;;;;;4998768;28;20536;-78
2022/12/12 10:51:21;;;;;;;0.30;0.30;;;2.00;99.90;;;;;;5029005;28;21153;-78
2022/12/12 10:53:47;;;;;;;0.20;0.20;;;1.60;99.90;;;;;;5014986;28;20883;-78
2022/12/12 10:56:25;;;;;;;0.30;0.30;;;1.70;99.90;;;;;;5025187;28;20508;-78
2022/12/12 10:58:56;;;;;;;0.30;0.30;;;2.00;99.90;;;;;;5037827;28;20203;-78
2022/12/12 11:01:27;;;;;;;0.30;0.30;;;2.10;99.90;;;;;;5016129;28;20926;-78
2022/12/12 11:03:54;;;;;;;0.20;0.20;;;1.70;99.90;;;;;;5025931;28;20565;-78
2022/12/12 11:06:25;;;;;;;0.27;0.27;;;1.70;99.90;;;;;;5025344;28;20438;-77
2022/12/12 11:08:56;;;;;;;0.30;0.30;;;1.20;99.90;;;;;;5029128;28;20946;-77
2022/12/12 11:11:27;;;;;;;0.30;0.30;;;0.90;99.90;;;;;;5013126;28;20879;-78
2022/12/12 11:13:56;;;;;;;0.30;0.30;;;0.50;99.90;;;;;;5022700;28;20580;-77
2022/12/12 11:16:25;;;;;;;0.30;0.30;;;0.60;99.90;;;;;;5023901;28;20494;-78
2022/12/12 11:19:04;;;;;;;0.30;0.30;;;0.70;99.90;;;;;;5026785;28;20448;-78
2022/12/12 11:21:33;;;;;;;0.43;0.43;;;0.50;99.90;;;;;;5023778;28;21029;-77
2022/12/12 11:24:02;;;;;;;0.47;0.47;;;0.30;99.90;;;;;;5023354;28;21172;-77
2022/12/12 11:26:28;;;;;;;0.30;0.30;;;0.40;99.90;;;;;;5004260;28;20998;-77
2022/12/12 11:28:59;;;;;;;0.33;0.33;;;0.20;99.90;;;;;;5016306;28;20563;-80
2022/12/12 11:31:29;;;;;;;0.40;0.40;;;0.10;99.90;;;;;;5024566;28;20454;-80
2022/12/12 11:33:59;;;;;;;0.40;0.40;;;0.20;99.90;;;;;;5022519;28;20453;-79
2022/12/12 11:36:34;;;;;;;0.40;0.40;;;0.30;99.90;;;;;;5027840;28;21176;-80
2022/12/12 11:39:11;;;;;;;0.30;0.30;;;0.40;99.90;;;;;;5004807;28;20437;-80
2022/12/12 11:41:58;;;;;;;0.40;0.40;;;0.30;99.90;;;;;;5002967;28;20464;-80
2022/12/12 11:44:24;;;;;;;0.37;0.37;;;0.40;99.90;;;;;;5010713;28;20531;-81
2022/12/12 11:46:50;;;;;;;0.50;0.50;;;0.50;99.90;;;;;;5025272;28;20548;-81
2022/12/12 11:49:19;;;;;;;0.40;0.40;;;0.40;99.90;;;;;;5025972;28;21080;-80
2022/12/12 11:51:45;;;;;;;0.40;0.40;;;0.30;99.90;;;;;;5025827;28;20194;-80
2022/12/12 11:54:14;;;;;;;0.43;0.43;;;0.20;99.90;;;;;;5019676;28;20482;-80
2022/12/12 11:57:04;;;;;;;0.40;0.40;;;0.20;99.90;;;;;;5014963;28;21270;-81
2022/12/12 11:59:46;;;;;;;0.43;0.43;;;0.10;99.90;;;;;;5024462;28;20469;-81
2022/12/12 12:02:39;;;;;;;0.40;0.40;;;0.00;99.90;;;;;;5020888;28;20465;-80
2022/12/12 12:05:55;;;;;;;0.40;0.40;;;0.00;99.90;;;;;;5024351;28;20454;-80
2022/12/12 12:08:44;;;;;;;0.50;0.50;;;0.10;99.90;;;;;;4983963;28;20452;-81
2022/12/12 12:11:40;;;;;;;0.33;0.33;;;0.10;99.90;;;;;;4966242;28;20453;-81
2022/12/12 12:14:20;;;;;;;0.50;0.50;;;0.10;99.90;;;;;;5014690;28;20442;-81
2022/12/12 12:16:54;;;;;;;0.50;0.50;;;0.10;99.90;;;;;;5021747;28;20679;-81
2022/12/12 12:19:48;;;;;;;0.37;0.37;;;0.00;99.90;;;;;;5022908;28;20447;-81
2022/12/12 12:22:49;;;;;;;0.40;0.40;;;0.00;99.90;;;;;;5019753;28;20455;-80
2022/12/12 12:25:32;;;;;;;0.30;0.30;;;-0.10;99.90;;;;;;5038351;28;20458;-80
2022/12/12 12:28:21;;;;;;;0.50;0.50;;;0.00;99.90;;;;;;5024331;28;20461;-80
2022/12/12 12:30:53;;;;;;;0.50;0.50;;;0.00;99.90;;;;;;5019425;28;20443;-80
2022/12/12 12:33:49;;;;;;;0.50;0.50;;;0.10;99.90;;;;;;5030398;28;20967;-81
2022/12/12 12:36:27;;;;;;;0.40;0.40;;;0.20;99.90;;;;;;5029791;28;21204;-80
2022/12/12 12:39:17;;;;;;;0.40;0.40;;;0.00;99.90;;;;;;5031349;28;20464;-80
2022/12/12 12:42:11;;;;;;;0.43;0.43;;;0.10;99.90;;;;;;5026369;28;20456;-80
2022/12/12 12:44:57;;;;;;;0.30;0.30;;;0.10;99.90;;;;;;5018039;28;20431;-80
2022/12/12 12:47:53;;;;;;;0.40;0.40;;;0.00;99.90;;;;;;5026552;28;20433;-81
2022/12/12 12:50:39;;;;;;;0.33;0.33;;;-0.10;99.90;;;;;;5029911;28;20445;-80
2022/12/12 12:53:42;;;;;;;0.40;0.40;;;0.00;99.90;;;;;;5028588;28;20450;-80
2022/12/12 12:56:27;;;;;;;0.30;0.30;;;0.00;99.90;;;;;;5025672;28;20539;-81
2022/12/12 12:58:59;;;;;;;0.50;0.50;;;0.00;99.90;;;;;;5041641;28;20449;-81
2022/12/12 13:01:32;;;;;;;0.47;0.47;;;0.00;99.90;;;;;;5022747;28;20446;-80
2022/12/12 13:04:11;;;;;;;0.50;0.50;;;0.00;99.90;;;;;;5042658;28;20956;-80
2022/12/12 13:06:57;;;;;;;0.40;0.40;;;0.00;99.90;;;;;;5027931;28;20493;-81
2022/12/12 13:09:33;;;;;;;0.60;0.60;;;-0.10;99.90;;;;;;5028800;28;20460;-80
2022/12/12 13:12:08;;;;;;;0.40;0.40;;;-0.10;99.90;;;;;;5026908;28;20589;-81
2022/12/12 13:14:56;;;;;;;0.30;0.30;;;0.00;99.90;;;;;;5030970;28;20445;-81
2022/12/12 13:17:34;;;;;;;0.40;0.40;;;-0.10;99.90;;;;;;5020417;28;20556;-81
2022/12/12 13:20:00;;;;;;;0.50;0.50;;;-0.20;99.90;;;;;;5043242;28;20445;-81
2022/12/12 13:22:40;;;;;;;0.37;0.37;;;-0.30;99.90;;;;;;5025543;28;20438;-81
2022/12/12 13:25:14;;;;;;;0.40;0.40;;;-0.30;99.90;;;;;;5035394;28;20445;-82